sensor_id;sensor_type;location;lat;lon;timestamp;temperature;humidity
25200;DHT22;33094;48.782;9.162;2022-07-29T00:00:00;20.40;99.90
25200;DHT22;33094;48.782;9.162;2022-07-29T00:02:26;20.30;99.90
25200;DHT22;33094;48.782;9.162;2022-07-29T00:04:51;20.50;99.90
25200;DHT22;33094;48.782;9.162;2022-07-29T00:07:17;20.90;99.90
25200;DHT22;33094;48.782;9.162;2022-07-29T00:09:43;21.00;99.90
25200;DHT22;33094;48.782;9.162;2022-07-29T00:12:08;20.40;99.90
25200;DHT22;33094;48.782;9.162;2022-07-29T00:14:34;20.30;99.90
25200;DHT22;33094;48.782;9.162;2022-07-29T00:17:00;20.40;99.90
25200;DHT22;33094;48.782;9.162;2022-07-29T00:19:25;20.30;99.90
25200;DHT22;33094;48.782;9.162;2022-07-29T00:21:51;20.40;99.90
25200;DHT22;33094;48.782;9.162;2022-07-29T00:24:16;20.70;99.90
25200;DHT22;33094;48.782;9.162;2022-07-29T00:26:42;20.20;99.90
25200;DHT22;33094;48.782;9.162;2022-07-29T00:29:07;20.20;99.90
25200;DHT22;33094;48.782;9.162;2022-07-29T00:31:33;20.10;99.90
25200;DHT22;33094;48.782;9.162;2022-07-29T00:33:58;20.10;99.90
25200;DHT22;33094;48.782;9.162;2022-07-29T00:36:24;20.10;99.90
25200;DHT22;33094;48.782;9.162;2022-07-29T00:38:50;20.00;99.90
25200;DHT22;33094;48.782;9.162;2022-07-29T00:41:16;20.00;99.90
25200;DHT22;33094;48.782;9.162;2022-07-29T00:43:42;20.00;99.90
25200;DHT22;33094;48.782;9.162;2022-07-29T00:46:07;20.00;99.90
25200;DHT22;33094;48.782;9.162;2022-07-29T00:48:33;19.90;99.90
25200;DHT22;33094;48.782;9.162;2022-07-29T00:50:59;20.20;99.90
25200;DHT22;33094;48.782;9.162;2022-07-29T00:53:25;20.00;99.90
25200;DHT22;33094;48.782;9.162;2022-07-29T00:55:53;21.10;99.90
25200;DHT22;33094;48.782;9.162;2022-07-29T00:58:19;20.00;99.90
25200;DHT22;33094;48.782;9.162;2022-07-29T01:00:44;20.00;99.90
25200;DHT22;33094;48.782;9.162;2022-07-29T01:03:10;20.10;99.90
25200;DHT22;33094;48.782;9.162;2022-07-29T01:05:35;20.10;99.90
25200;DHT22;33094;48.782;9.162;2022-07-29T01:08:01;20.10;99.90
25200;DHT22;33094;48.782;9.162;2022-07-29T01:10:27;20.10;99.90
25200;DHT22;33094;48.782;9.162;2022-07-29T01:12:53;20.20;99.90
25200;DHT22;33094;48.782;9.162;2022-07-29T01:15:20;20.10;99.90
25200;DHT22;33094;48.782;9.162;2022-07-29T01:17:50;20.10;99.90
25200;DHT22;33094;48.782;9.162;2022-07-29T01:20:20;20.10;99.90
25200;DHT22;33094;48.782;9.162;2022-07-29T01:23:07;20.20;99.90
25200;DHT22;33094;48.782;9.162;2022-07-29T01:30:28;20.00;99.90
25200;DHT22;33094;48.782;9.162;2022-07-29T01:32:56;20.00;99.90
25200;DHT22;33094;48.782;9.162;2022-07-29T01:35:25;20.00;99.90
25200;DHT22;33094;48.782;9.162;2022-07-29T01:37:59;20.00;99.90
25200;DHT22;33094;48.782;9.162;2022-07-29T01:40:31;20.00;99.90
25200;DHT22;33094;48.782;9.162;2022-07-29T01:42:59;20.00;99.90
25200;DHT22;33094;48.782;9.162;2022-07-29T01:45:50;19.90;99.90
25200;DHT22;33094;48.782;9.162;2022-07-29T01:50:58;19.80;99.90
25200;DHT22;33094;48.782;9.162;2022-07-29T01:53:31;19.80;99.90
25200;DHT22;33094;48.782;9.162;2022-07-29T01:55:57;19.80;99.90
25200;DHT22;33094;48.782;9.162;2022-07-29T01:58:25;20.00;99.90
25200;DHT22;33094;48.782;9.162;2022-07-29T02:00:52;19.80;99.90
25200;DHT22;33094;48.782;9.162;2022-07-29T02:03:19;19.80;99.90
25200;DHT22;33094;48.782;9.162;2022-07-29T02:05:45;19.70;99.90
25200;DHT22;33094;48.782;9.162;2022-07-29T02:08:11;19.70;99.90
25200;DHT22;33094;48.782;9.162;2022-07-29T02:10:38;19.70;99.90
25200;DHT22;33094;48.782;9.162;2022-07-29T02:13:05;19.60;99.90
25200;DHT22;33094;48.782;9.162;2022-07-29T02:15:32;19.70;99.90
25200;DHT22;33094;48.782;9.162;2022-07-29T02:17:59;19.60;99.90
25200;DHT22;33094;48.782;9.162;2022-07-29T02:20:27;19.60;99.90
25200;DHT22;33094;48.782;9.162;2022-07-29T02:23:15;19.50;99.90
25200;DHT22;33094;48.782;9.162;2022-07-29T02:25:42;20.20;99.90
25200;DHT22;33094;48.782;9.162;2022-07-29T02:28:08;19.50;99.90
25200;DHT22;33094;48.782;9.162;2022-07-29T02:30:36;19.60;99.90
25200;DHT22;33094;48.782;9.162;2022-07-29T02:33:04;19.50;99.90
25200;DHT22;33094;48.782;9.162;2022-07-29T02:35:30;19.50;99.90
25200;DHT22;33094;48.782;9.162;2022-07-29T02:37:56;19.50;99.90
25200;DHT22;33094;48.782;9.162;2022-07-29T02:40:40;19.40;99.90
25200;DHT22;33094;48.782;9.162;2022-07-29T02:43:07;19.40;99.90
25200;DHT22;33094;48.782;9.162;2022-07-29T02:45:34;19.50;99.90
25200;DHT22;33094;48.782;9.162;2022-07-29T02:48:01;19.50;99.90
25200;DHT22;33094;48.782;9.162;2022-07-29T02:50:32;19.50;99.90
25200;DHT22;33094;48.782;9.162;2022-07-29T02:53:01;19.40;99.90
25200;DHT22;33094;48.782;9.162;2022-07-29T02:58:01;19.40;99.90
25200;DHT22;33094;48.782;9.162;2022-07-29T03:00:27;19.40;99.90
25200;DHT22;33094;48.782;9.162;2022-07-29T03:02:53;20.80;99.90
25200;DHT22;33094;48.782;9.162;2022-07-29T03:05:20;19.40;99.90
25200;DHT22;33094;48.782;9.162;2022-07-29T03:07:47;19.50;99.90
25200;DHT22;33094;48.782;9.162;2022-07-29T03:10:13;19.50;99.90
25200;DHT22;33094;48.782;9.162;2022-07-29T03:12:39;20.30;99.90
25200;DHT22;33094;48.782;9.162;2022-07-29T03:15:05;19.60;99.90
25200;DHT22;33094;48.782;9.162;2022-07-29T03:17:31;19.60;99.90
25200;DHT22;33094;48.782;9.162;2022-07-29T03:19:57;20.90;99.90
25200;DHT22;33094;48.782;9.162;2022-07-29T03:22:22;19.60;99.90
25200;DHT22;33094;48.782;9.162;2022-07-29T03:24:49;19.40;99.90
25200;DHT22;33094;48.782;9.162;2022-07-29T03:27:14;19.40;99.90
25200;DHT22;33094;48.782;9.162;2022-07-29T03:29:40;19.40;99.90
25200;DHT22;33094;48.782;9.162;2022-07-29T03:32:05;19.40;99.90
25200;DHT22;33094;48.782;9.162;2022-07-29T03:34:31;19.50;99.90
25200;DHT22;33094;48.782;9.162;2022-07-29T03:36:56;19.50;99.90
25200;DHT22;33094;48.782;9.162;2022-07-29T03:39:23;19.40;99.90
25200;DHT22;33094;48.782;9.162;2022-07-29T03:41:51;19.40;99.90
25200;DHT22;33094;48.782;9.162;2022-07-29T03:44:17;19.40;99.90
25200;DHT22;33094;48.782;9.162;2022-07-29T03:46:43;19.40;99.90
25200;DHT22;33094;48.782;9.162;2022-07-29T03:49:09;19.40;99.90
25200;DHT22;33094;48.782;9.162;2022-07-29T03:51:36;20.70;99.90
25200;DHT22;33094;48.782;9.162;2022-07-29T03:54:02;19.40;99.90
25200;DHT22;33094;48.782;9.162;2022-07-29T03:56:28;19.40;99.90
25200;DHT22;33094;48.782;9.162;2022-07-29T03:58:54;19.50;99.90
25200;DHT22;33094;48.782;9.162;2022-07-29T04:01:20;19.40;99.90
25200;DHT22;33094;48.782;9.162;2022-07-29T04:03:46;19.40;99.90
25200;DHT22;33094;48.782;9.162;2022-07-29T04:06:11;19.30;99.90
25200;DHT22;33094;48.782;9.162;2022-07-29T04:08:37;19.30;99.90
25200;DHT22;33094;48.782;9.162;2022-07-29T04:11:03;19.20;99.90
25200;DHT22;33094;48.782;9.162;2022-07-29T04:21:15;19.10;99.90
25200;DHT22;33094;48.782;9.162;2022-07-29T04:28:52;19.10;99.90
25200;DHT22;33094;48.782;9.162;2022-07-29T04:31:20;19.20;99.90
25200;DHT22;33094;48.782;9.162;2022-07-29T04:36:28;19.20;99.90
25200;DHT22;33094;48.782;9.162;2022-07-29T04:38:54;19.10;99.90
25200;DHT22;33094;48.782;9.162;2022-07-29T04:41:22;19.20;99.90
25200;DHT22;33094;48.782;9.162;2022-07-29T04:43:47;19.20;99.90
25200;DHT22;33094;48.782;9.162;2022-07-29T04:46:13;19.20;99.90
25200;DHT22;33094;48.782;9.162;2022-07-29T04:48:38;19.30;99.90
25200;DHT22;33094;48.782;9.162;2022-07-29T04:51:04;19.40;99.90
25200;DHT22;33094;48.782;9.162;2022-07-29T04:53:29;19.50;99.90
25200;DHT22;33094;48.782;9.162;2022-07-29T04:55:55;19.40;99.90
25200;DHT22;33094;48.782;9.162;2022-07-29T04:58:20;19.30;99.90
25200;DHT22;33094;48.782;9.162;2022-07-29T05:00:48;19.40;99.90
25200;DHT22;33094;48.782;9.162;2022-07-29T05:03:13;19.60;99.90
25200;DHT22;33094;48.782;9.162;2022-07-29T05:05:39;19.40;99.90
25200;DHT22;33094;48.782;9.162;2022-07-29T05:08:06;19.50;99.90
25200;DHT22;33094;48.782;9.162;2022-07-29T05:10:31;19.50;99.90
25200;DHT22;33094;48.782;9.162;2022-07-29T05:12:57;19.70;99.90
25200;DHT22;33094;48.782;9.162;2022-07-29T05:15:23;19.80;99.90
25200;DHT22;33094;48.782;9.162;2022-07-29T05:17:49;20.10;99.90
25200;DHT22;33094;48.782;9.162;2022-07-29T05:20:14;20.20;99.90
25200;DHT22;33094;48.782;9.162;2022-07-29T05:22:40;20.30;99.90
25200;DHT22;33094;48.782;9.162;2022-07-29T05:25:05;20.30;99.90
25200;DHT22;33094;48.782;9.162;2022-07-29T05:27:31;20.20;99.90
25200;DHT22;33094;48.782;9.162;2022-07-29T05:29:56;22.00;99.90
25200;DHT22;33094;48.782;9.162;2022-07-29T05:32:22;20.20;99.90
25200;DHT22;33094;48.782;9.162;2022-07-29T05:34:47;20.30;99.90
25200;DHT22;33094;48.782;9.162;2022-07-29T05:37:13;20.30;99.90
25200;DHT22;33094;48.782;9.162;2022-07-29T05:39:39;20.50;99.90
25200;DHT22;33094;48.782;9.162;2022-07-29T05:42:08;20.40;99.90
25200;DHT22;33094;48.782;9.162;2022-07-29T05:44:36;20.40;99.90
25200;DHT22;33094;48.782;9.162;2022-07-29T05:47:01;20.40;99.90
25200;DHT22;33094;48.782;9.162;2022-07-29T05:49:27;20.60;99.90
25200;DHT22;33094;48.782;9.162;2022-07-29T05:51:52;20.10;99.90
25200;DHT22;33094;48.782;9.162;2022-07-29T05:54:18;20.80;99.90
25200;DHT22;33094;48.782;9.162;2022-07-29T05:56:43;21.80;99.90
25200;DHT22;33094;48.782;9.162;2022-07-29T05:59:09;22.00;99.90
25200;DHT22;33094;48.782;9.162;2022-07-29T06:01:34;23.30;99.90
25200;DHT22;33094;48.782;9.162;2022-07-29T06:04:05;24.00;99.90
25200;DHT22;33094;48.782;9.162;2022-07-29T06:06:30;24.10;99.90
25200;DHT22;33094;48.782;9.162;2022-07-29T06:08:57;22.60;99.90
25200;DHT22;33094;48.782;9.162;2022-07-29T06:11:23;21.90;99.90
25200;DHT22;33094;48.782;9.162;2022-07-29T06:13:48;21.80;99.90
25200;DHT22;33094;48.782;9.162;2022-07-29T06:16:14;21.60;99.90
25200;DHT22;33094;48.782;9.162;2022-07-29T06:18:40;21.50;99.90
25200;DHT22;33094;48.782;9.162;2022-07-29T06:21:08;22.20;99.90
25200;DHT22;33094;48.782;9.162;2022-07-29T06:23:37;21.70;99.90
25200;DHT22;33094;48.782;9.162;2022-07-29T06:26:03;21.70;99.90
25200;DHT22;33094;48.782;9.162;2022-07-29T06:28:28;21.90;99.90
25200;DHT22;33094;48.782;9.162;2022-07-29T06:30:54;21.90;99.90
25200;DHT22;33094;48.782;9.162;2022-07-29T06:33:19;22.10;99.90
25200;DHT22;33094;48.782;9.162;2022-07-29T06:35:45;22.40;99.90
25200;DHT22;33094;48.782;9.162;2022-07-29T06:38:12;22.60;99.90
25200;DHT22;33094;48.782;9.162;2022-07-29T06:40:42;22.70;99.90
25200;DHT22;33094;48.782;9.162;2022-07-29T06:43:27;22.80;99.90
25200;DHT22;33094;48.782;9.162;2022-07-29T06:45:52;22.50;99.90
25200;DHT22;33094;48.782;9.162;2022-07-29T06:48:18;22.40;99.90
25200;DHT22;33094;48.782;9.162;2022-07-29T06:50:43;22.40;99.90
25200;DHT22;33094;48.782;9.162;2022-07-29T06:53:09;22.30;99.90
25200;DHT22;33094;48.782;9.162;2022-07-29T06:55:34;22.40;99.90
25200;DHT22;33094;48.782;9.162;2022-07-29T06:58:02;22.60;99.90
25200;DHT22;33094;48.782;9.162;2022-07-29T07:00:27;22.50;99.90
25200;DHT22;33094;48.782;9.162;2022-07-29T07:02:53;22.50;99.90
25200;DHT22;33094;48.782;9.162;2022-07-29T07:05:18;22.70;99.90
25200;DHT22;33094;48.782;9.162;2022-07-29T07:07:44;23.00;99.90
25200;DHT22;33094;48.782;9.162;2022-07-29T07:10:09;23.10;99.90
25200;DHT22;33094;48.782;9.162;2022-07-29T07:12:35;23.00;99.90
25200;DHT22;33094;48.782;9.162;2022-07-29T07:15:00;23.10;99.90
25200;DHT22;33094;48.782;9.162;2022-07-29T07:17:26;23.30;99.90
25200;DHT22;33094;48.782;9.162;2022-07-29T07:19:51;22.80;99.90
25200;DHT22;33094;48.782;9.162;2022-07-29T07:22:17;23.00;99.90
25200;DHT22;33094;48.782;9.162;2022-07-29T07:24:42;23.10;99.90
25200;DHT22;33094;48.782;9.162;2022-07-29T07:27:08;23.30;99.90
25200;DHT22;33094;48.782;9.162;2022-07-29T07:29:33;23.40;99.90
25200;DHT22;33094;48.782;9.162;2022-07-29T07:31:59;23.50;99.90
25200;DHT22;33094;48.782;9.162;2022-07-29T07:34:24;23.60;99.90
25200;DHT22;33094;48.782;9.162;2022-07-29T07:36:50;23.40;99.90
25200;DHT22;33094;48.782;9.162;2022-07-29T07:39:15;23.50;99.90
25200;DHT22;33094;48.782;9.162;2022-07-29T07:41:41;23.40;99.90
25200;DHT22;33094;48.782;9.162;2022-07-29T07:44:06;23.50;99.90
25200;DHT22;33094;48.782;9.162;2022-07-29T07:46:32;23.60;99.90
25200;DHT22;33094;48.782;9.162;2022-07-29T07:48:57;23.60;99.90
25200;DHT22;33094;48.782;9.162;2022-07-29T07:51:23;24.20;99.90
25200;DHT22;33094;48.782;9.162;2022-07-29T07:53:48;24.00;99.90
25200;DHT22;33094;48.782;9.162;2022-07-29T07:56:17;24.30;99.90
25200;DHT22;33094;48.782;9.162;2022-07-29T07:58:42;24.30;99.90
25200;DHT22;33094;48.782;9.162;2022-07-29T08:01:08;24.50;99.90
25200;DHT22;33094;48.782;9.162;2022-07-29T08:03:34;24.40;99.90
25200;DHT22;33094;48.782;9.162;2022-07-29T08:05:59;24.40;99.90
25200;DHT22;33094;48.782;9.162;2022-07-29T08:08:25;24.60;99.90
25200;DHT22;33094;48.782;9.162;2022-07-29T08:10:51;24.80;99.90
25200;DHT22;33094;48.782;9.162;2022-07-29T08:13:21;24.90;99.90
25200;DHT22;33094;48.782;9.162;2022-07-29T08:15:47;25.10;99.90
25200;DHT22;33094;48.782;9.162;2022-07-29T08:18:12;25.00;99.90
25200;DHT22;33094;48.782;9.162;2022-07-29T08:20:38;25.10;99.90
25200;DHT22;33094;48.782;9.162;2022-07-29T08:23:04;25.30;99.90
25200;DHT22;33094;48.782;9.162;2022-07-29T08:25:31;25.80;99.90
25200;DHT22;33094;48.782;9.162;2022-07-29T08:27:58;25.80;99.90
25200;DHT22;33094;48.782;9.162;2022-07-29T08:30:23;25.70;99.90
25200;DHT22;33094;48.782;9.162;2022-07-29T08:32:49;25.70;99.90
25200;DHT22;33094;48.782;9.162;2022-07-29T08:35:18;26.50;99.90
25200;DHT22;33094;48.782;9.162;2022-07-29T08:37:44;28.00;99.90
25200;DHT22;33094;48.782;9.162;2022-07-29T08:40:09;28.70;99.90
25200;DHT22;33094;48.782;9.162;2022-07-29T08:42:35;28.20;99.90
25200;DHT22;33094;48.782;9.162;2022-07-29T08:45:01;27.40;99.90
25200;DHT22;33094;48.782;9.162;2022-07-29T08:47:27;28.10;99.90
25200;DHT22;33094;48.782;9.162;2022-07-29T08:49:52;27.20;99.90
25200;DHT22;33094;48.782;9.162;2022-07-29T08:52:18;27.00;99.90
25200;DHT22;33094;48.782;9.162;2022-07-29T08:54:45;27.50;99.90
25200;DHT22;33094;48.782;9.162;2022-07-29T08:57:14;28.40;99.90
25200;DHT22;33094;48.782;9.162;2022-07-29T08:59:42;28.90;99.90
25200;DHT22;33094;48.782;9.162;2022-07-29T09:02:12;28.70;99.90
25200;DHT22;33094;48.782;9.162;2022-07-29T09:04:40;29.20;99.90
25200;DHT22;33094;48.782;9.162;2022-07-29T09:07:06;29.30;99.90
25200;DHT22;33094;48.782;9.162;2022-07-29T09:09:33;29.10;99.90
25200;DHT22;33094;48.782;9.162;2022-07-29T09:11:58;29.60;99.90
25200;DHT22;33094;48.782;9.162;2022-07-29T09:14:25;28.80;99.90
25200;DHT22;33094;48.782;9.162;2022-07-29T09:16:52;29.70;99.90
25200;DHT22;33094;48.782;9.162;2022-07-29T09:19:22;29.50;99.90
25200;DHT22;33094;48.782;9.162;2022-07-29T09:21:47;29.50;99.90
25200;DHT22;33094;48.782;9.162;2022-07-29T09:24:27;29.90;99.90
25200;DHT22;33094;48.782;9.162;2022-07-29T09:26:52;30.30;98.80
25200;DHT22;33094;48.782;9.162;2022-07-29T09:29:19;30.20;98.70
25200;DHT22;33094;48.782;9.162;2022-07-29T09:31:45;30.40;97.10
25200;DHT22;33094;48.782;9.162;2022-07-29T09:34:12;30.10;97.70
25200;DHT22;33094;48.782;9.162;2022-07-29T09:36:42;29.70;96.30
25200;DHT22;33094;48.782;9.162;2022-07-29T09:39:08;30.10;97.30
25200;DHT22;33094;48.782;9.162;2022-07-29T09:41:49;30.30;97.10
25200;DHT22;33094;48.782;9.162;2022-07-29T09:44:18;30.40;96.10
25200;DHT22;33094;48.782;9.162;2022-07-29T09:46:59;31.00;95.30
25200;DHT22;33094;48.782;9.162;2022-07-29T09:49:31;30.60;95.30
25200;DHT22;33094;48.782;9.162;2022-07-29T09:54:28;31.10;93.90
25200;DHT22;33094;48.782;9.162;2022-07-29T09:56:54;30.70;94.40
25200;DHT22;33094;48.782;9.162;2022-07-29T09:59:20;30.10;95.00
25200;DHT22;33094;48.782;9.162;2022-07-29T10:01:48;27.90;96.60
25200;DHT22;33094;48.782;9.162;2022-07-29T10:04:14;27.20;97.40
25200;DHT22;33094;48.782;9.162;2022-07-29T10:06:56;27.30;97.50
25200;DHT22;33094;48.782;9.162;2022-07-29T10:09:22;29.60;96.10
25200;DHT22;33094;48.782;9.162;2022-07-29T10:12:08;28.70;96.00
25200;DHT22;33094;48.782;9.162;2022-07-29T10:14:39;28.20;96.30
25200;DHT22;33094;48.782;9.162;2022-07-29T10:17:05;28.20;96.30
25200;DHT22;33094;48.782;9.162;2022-07-29T10:19:31;28.60;96.40
25200;DHT22;33094;48.782;9.162;2022-07-29T10:21:57;29.70;95.30
25200;DHT22;33094;48.782;9.162;2022-07-29T10:24:24;28.30;96.30
25200;DHT22;33094;48.782;9.162;2022-07-29T10:26:49;28.10;96.90
25200;DHT22;33094;48.782;9.162;2022-07-29T10:29:15;27.50;97.00
25200;DHT22;33094;48.782;9.162;2022-07-29T10:31:48;27.20;97.30
25200;DHT22;33094;48.782;9.162;2022-07-29T10:42:06;26.20;99.20
25200;DHT22;33094;48.782;9.162;2022-07-29T10:44:39;26.00;99.90
25200;DHT22;33094;48.782;9.162;2022-07-29T10:47:05;25.70;99.90
25200;DHT22;33094;48.782;9.162;2022-07-29T10:49:30;25.60;99.90
25200;DHT22;33094;48.782;9.162;2022-07-29T10:51:57;25.50;99.90
25200;DHT22;33094;48.782;9.162;2022-07-29T10:57:17;25.20;99.90
25200;DHT22;33094;48.782;9.162;2022-07-29T10:59:43;22.80;99.90
25200;DHT22;33094;48.782;9.162;2022-07-29T11:07:20;20.60;99.90
25200;DHT22;33094;48.782;9.162;2022-07-29T11:25:40;21.70;99.90
25200;DHT22;33094;48.782;9.162;2022-07-29T11:28:10;22.10;99.90
25200;DHT22;33094;48.782;9.162;2022-07-29T11:33:33;22.40;99.90
25200;DHT22;33094;48.782;9.162;2022-07-29T11:38:41;22.50;99.90
25200;DHT22;33094;48.782;9.162;2022-07-29T11:46:12;22.60;99.90
25200;DHT22;33094;48.782;9.162;2022-07-29T11:48:41;22.80;99.90
25200;DHT22;33094;48.782;9.162;2022-07-29T11:51:11;22.80;99.90
25200;DHT22;33094;48.782;9.162;2022-07-29T11:53:37;22.90;99.90
25200;DHT22;33094;48.782;9.162;2022-07-29T11:56:02;22.80;99.90
25200;DHT22;33094;48.782;9.162;2022-07-29T11:58:30;22.90;99.90
25200;DHT22;33094;48.782;9.162;2022-07-29T12:00:56;23.00;99.90
25200;DHT22;33094;48.782;9.162;2022-07-29T12:11:18;22.90;99.90
25200;DHT22;33094;48.782;9.162;2022-07-29T12:13:49;23.20;99.90
25200;DHT22;33094;48.782;9.162;2022-07-29T12:19:00;23.00;99.90
25200;DHT22;33094;48.782;9.162;2022-07-29T12:21:33;22.80;99.90
25200;DHT22;33094;48.782;9.162;2022-07-29T12:24:08;23.10;99.90
25200;DHT22;33094;48.782;9.162;2022-07-29T12:26:33;23.00;99.90
25200;DHT22;33094;48.782;9.162;2022-07-29T12:28:59;23.20;99.90
25200;DHT22;33094;48.782;9.162;2022-07-29T12:31:25;23.20;99.90
25200;DHT22;33094;48.782;9.162;2022-07-29T12:33:51;23.00;99.90
25200;DHT22;33094;48.782;9.162;2022-07-29T12:36:17;22.50;99.90
25200;DHT22;33094;48.782;9.162;2022-07-29T12:38:43;22.50;99.90
25200;DHT22;33094;48.782;9.162;2022-07-29T12:41:10;22.40;99.90
25200;DHT22;33094;48.782;9.162;2022-07-29T12:43:35;22.50;99.90
25200;DHT22;33094;48.782;9.162;2022-07-29T12:46:12;22.40;99.90
25200;DHT22;33094;48.782;9.162;2022-07-29T12:48:39;22.40;99.90
25200;DHT22;33094;48.782;9.162;2022-07-29T12:51:05;22.50;99.90
25200;DHT22;33094;48.782;9.162;2022-07-29T12:53:32;22.60;99.90
25200;DHT22;33094;48.782;9.162;2022-07-29T12:55:57;22.60;99.90
25200;DHT22;33094;48.782;9.162;2022-07-29T13:01:06;22.40;99.90
25200;DHT22;33094;48.782;9.162;2022-07-29T13:03:42;22.20;99.90
25200;DHT22;33094;48.782;9.162;2022-07-29T13:11:41;22.30;99.90
25200;DHT22;33094;48.782;9.162;2022-07-29T13:24:48;22.30;99.90
25200;DHT22;33094;48.782;9.162;2022-07-29T13:27:15;22.20;99.90
25200;DHT22;33094;48.782;9.162;2022-07-29T13:29:41;22.30;99.90
25200;DHT22;33094;48.782;9.162;2022-07-29T13:32:07;22.30;99.90
25200;DHT22;33094;48.782;9.162;2022-07-29T13:34:33;22.40;99.90
25200;DHT22;33094;48.782;9.162;2022-07-29T13:36:59;21.90;99.90
25200;DHT22;33094;48.782;9.162;2022-07-29T13:42:06;22.60;99.90
25200;DHT22;33094;48.782;9.162;2022-07-29T13:49:44;23.70;99.90
25200;DHT22;33094;48.782;9.162;2022-07-29T13:52:10;24.00;99.90
25200;DHT22;33094;48.782;9.162;2022-07-29T13:54:36;25.60;99.90
25200;DHT22;33094;48.782;9.162;2022-07-29T13:57:04;24.20;99.90
25200;DHT22;33094;48.782;9.162;2022-07-29T13:59:30;24.20;99.90
25200;DHT22;33094;48.782;9.162;2022-07-29T14:01:56;24.50;99.90
25200;DHT22;33094;48.782;9.162;2022-07-29T14:04:22;24.70;99.90
25200;DHT22;33094;48.782;9.162;2022-07-29T14:06:49;24.80;99.90
25200;DHT22;33094;48.782;9.162;2022-07-29T14:09:14;25.00;99.90
25200;DHT22;33094;48.782;9.162;2022-07-29T14:11:41;24.90;99.90
25200;DHT22;33094;48.782;9.162;2022-07-29T14:14:14;24.50;99.90
25200;DHT22;33094;48.782;9.162;2022-07-29T14:16:40;24.60;99.90
25200;DHT22;33094;48.782;9.162;2022-07-29T14:19:06;24.50;99.90
25200;DHT22;33094;48.782;9.162;2022-07-29T14:21:32;24.10;99.90
25200;DHT22;33094;48.782;9.162;2022-07-29T14:23:58;24.40;99.90
25200;DHT22;33094;48.782;9.162;2022-07-29T14:26:23;24.60;99.90
25200;DHT22;33094;48.782;9.162;2022-07-29T14:28:49;24.50;99.90
25200;DHT22;33094;48.782;9.162;2022-07-29T14:31:15;24.50;99.90
25200;DHT22;33094;48.782;9.162;2022-07-29T14:33:41;24.50;99.90
25200;DHT22;33094;48.782;9.162;2022-07-29T14:36:06;24.70;99.90
25200;DHT22;33094;48.782;9.162;2022-07-29T14:38:32;24.60;99.90
25200;DHT22;33094;48.782;9.162;2022-07-29T14:40:57;24.80;99.90
25200;DHT22;33094;48.782;9.162;2022-07-29T14:43:23;24.80;99.90
25200;DHT22;33094;48.782;9.162;2022-07-29T14:45:49;24.90;99.90
25200;DHT22;33094;48.782;9.162;2022-07-29T14:48:14;25.70;99.90
25200;DHT22;33094;48.782;9.162;2022-07-29T14:50:40;25.00;99.90
25200;DHT22;33094;48.782;9.162;2022-07-29T14:53:05;24.90;99.90
25200;DHT22;33094;48.782;9.162;2022-07-29T14:55:31;24.90;99.90
25200;DHT22;33094;48.782;9.162;2022-07-29T14:57:57;25.10;99.90
25200;DHT22;33094;48.782;9.162;2022-07-29T15:00:24;25.10;99.90
25200;DHT22;33094;48.782;9.162;2022-07-29T15:02:50;25.00;99.90
25200;DHT22;33094;48.782;9.162;2022-07-29T15:05:16;25.20;99.90
25200;DHT22;33094;48.782;9.162;2022-07-29T15:07:42;24.80;99.90
25200;DHT22;33094;48.782;9.162;2022-07-29T15:10:08;25.00;99.90
25200;DHT22;33094;48.782;9.162;2022-07-29T15:12:33;25.10;99.90
25200;DHT22;33094;48.782;9.162;2022-07-29T15:14:59;23.90;99.90
25200;DHT22;33094;48.782;9.162;2022-07-29T15:17:25;25.30;99.90
25200;DHT22;33094;48.782;9.162;2022-07-29T15:19:50;25.10;99.90
25200;DHT22;33094;48.782;9.162;2022-07-29T15:22:16;25.20;99.90
25200;DHT22;33094;48.782;9.162;2022-07-29T15:24:42;25.20;99.90
25200;DHT22;33094;48.782;9.162;2022-07-29T15:27:08;25.20;99.90
25200;DHT22;33094;48.782;9.162;2022-07-29T15:29:42;25.10;99.90
25200;DHT22;33094;48.782;9.162;2022-07-29T15:32:08;25.20;99.90
25200;DHT22;33094;48.782;9.162;2022-07-29T15:34:34;25.20;99.90
25200;DHT22;33094;48.782;9.162;2022-07-29T15:36:59;25.20;99.90
25200;DHT22;33094;48.782;9.162;2022-07-29T15:39:25;25.00;99.90
25200;DHT22;33094;48.782;9.162;2022-07-29T15:41:50;25.10;99.90
25200;DHT22;33094;48.782;9.162;2022-07-29T15:44:16;25.00;99.90
25200;DHT22;33094;48.782;9.162;2022-07-29T15:46:42;25.00;99.90
25200;DHT22;33094;48.782;9.162;2022-07-29T15:49:26;24.90;99.90
25200;DHT22;33094;48.782;9.162;2022-07-29T15:52:06;24.90;99.90
25200;DHT22;33094;48.782;9.162;2022-07-29T15:54:33;24.90;99.90
25200;DHT22;33094;48.782;9.162;2022-07-29T15:56:58;24.70;99.90
25200;DHT22;33094;48.782;9.162;2022-07-29T15:59:24;24.80;99.90
25200;DHT22;33094;48.782;9.162;2022-07-29T16:01:50;24.80;99.90
25200;DHT22;33094;48.782;9.162;2022-07-29T16:04:16;24.80;99.90
25200;DHT22;33094;48.782;9.162;2022-07-29T16:06:42;24.80;99.90
25200;DHT22;33094;48.782;9.162;2022-07-29T16:09:08;24.50;99.90
25200;DHT22;33094;48.782;9.162;2022-07-29T16:11:33;24.50;99.90
25200;DHT22;33094;48.782;9.162;2022-07-29T16:13:59;25.90;99.90
25200;DHT22;33094;48.782;9.162;2022-07-29T16:16:24;24.60;99.90
25200;DHT22;33094;48.782;9.162;2022-07-29T16:18:50;24.50;99.90
25200;DHT22;33094;48.782;9.162;2022-07-29T16:21:16;24.50;99.90
25200;DHT22;33094;48.782;9.162;2022-07-29T16:23:41;24.60;99.90
25200;DHT22;33094;48.782;9.162;2022-07-29T16:26:07;24.60;99.90
25200;DHT22;33094;48.782;9.162;2022-07-29T16:28:32;24.20;99.90
25200;DHT22;33094;48.782;9.162;2022-07-29T16:30:58;24.00;99.90
25200;DHT22;33094;48.782;9.162;2022-07-29T16:33:24;24.30;99.90
25200;DHT22;33094;48.782;9.162;2022-07-29T16:35:50;24.40;99.90
25200;DHT22;33094;48.782;9.162;2022-07-29T16:38:19;23.90;99.90
25200;DHT22;33094;48.782;9.162;2022-07-29T16:40:50;24.00;99.90
25200;DHT22;33094;48.782;9.162;2022-07-29T16:46:02;23.80;99.90
25200;DHT22;33094;48.782;9.162;2022-07-29T16:48:30;22.90;99.90
25200;DHT22;33094;48.782;9.162;2022-07-29T16:50:56;23.80;99.90
25200;DHT22;33094;48.782;9.162;2022-07-29T16:53:22;23.40;99.90
25200;DHT22;33094;48.782;9.162;2022-07-29T16:55:47;22.80;99.90
25200;DHT22;33094;48.782;9.162;2022-07-29T16:58:13;22.70;99.90
25200;DHT22;33094;48.782;9.162;2022-07-29T17:00:39;22.30;99.90
25200;DHT22;33094;48.782;9.162;2022-07-29T17:03:05;22.50;99.90
25200;DHT22;33094;48.782;9.162;2022-07-29T17:08:06;22.60;99.90
25200;DHT22;33094;48.782;9.162;2022-07-29T17:10:31;22.90;99.90
25200;DHT22;33094;48.782;9.162;2022-07-29T17:12:57;22.70;99.90
25200;DHT22;33094;48.782;9.162;2022-07-29T17:15:22;23.20;99.90
25200;DHT22;33094;48.782;9.162;2022-07-29T17:17:48;23.40;99.90
25200;DHT22;33094;48.782;9.162;2022-07-29T17:20:14;23.40;99.90